createdAt,value
2022-10-03T00:00:40.535Z,0.57
2022-10-03T00:03:39.176Z,0.70
2022-10-03T00:06:34.505Z,0.70
2022-10-03T00:09:41.361Z,0.65
2022-10-03T00:12:49.979Z,0.70
2022-10-03T00:15:42.679Z,0.80
2022-10-03T00:18:52.729Z,0.77
2022-10-03T00:21:48.508Z,0.65
2022-10-03T00:24:45.030Z,0.90
2022-10-03T00:27:52.990Z,0.98
2022-10-03T00:31:17.031Z,0.80
2022-10-03T00:34:22.881Z,1.00
2022-10-03T00:37:29.180Z,0.93
2022-10-03T00:40:50.016Z,1.10
2022-10-03T00:44:31.213Z,1.05
2022-10-03T00:47:37.571Z,1.23
2022-10-03T00:50:27.111Z,1.38
2022-10-03T00:53:35.817Z,1.65
2022-10-03T00:56:37.722Z,2.00
2022-10-03T01:00:08.888Z,2.50
2022-10-03T01:02:58.416Z,2.50
2022-10-03T01:06:16.422Z,2.83
2022-10-03T01:09:32.309Z,3.40
2022-10-03T01:12:22.863Z,3.10
2022-10-03T01:15:17.946Z,3.45
2022-10-03T01:18:13.089Z,3.95
2022-10-03T01:21:40.775Z,4.40
2022-10-03T01:25:16.777Z,4.65
2022-10-03T01:28:59.492Z,4.68
2022-10-03T01:32:05.917Z,5.63
2022-10-03T01:35:07.794Z,5.70
2022-10-03T01:38:29.882Z,6.28
2022-10-03T01:42:05.301Z,6.88
2022-10-03T01:45:07.900Z,7.07
2022-10-03T01:48:20.306Z,7.55
2022-10-03T01:51:35.069Z,7.38
2022-10-03T01:54:40.736Z,7.72
2022-10-03T01:57:42.784Z,7.50
2022-10-03T02:00:59.276Z,7.85
2022-10-03T02:04:04.413Z,7.43
2022-10-03T02:07:05.719Z,7.05
2022-10-03T02:10:32.685Z,7.15
2022-10-03T02:13:25.617Z,6.63
2022-10-03T02:16:36.113Z,6.97
2022-10-03T02:19:36.610Z,7.30
2022-10-03T02:22:38.509Z,7.53
2022-10-03T02:25:53.760Z,7.25
2022-10-03T02:29:03.921Z,8.07
2022-10-03T02:32:12.744Z,8.20
2022-10-03T02:35:11.477Z,8.50
2022-10-03T02:38:30.815Z,8.38
2022-10-03T02:41:37.323Z,8.13
2022-10-03T02:44:58.610Z,9.23
2022-10-03T02:48:08.375Z,9.00
2022-10-03T02:51:28.502Z,9.23
2022-10-03T02:54:27.513Z,9.30
2022-10-03T02:57:42.115Z,9.27
2022-10-03T03:01:07.239Z,9.18
2022-10-03T03:04:08.919Z,9.27
2022-10-03T03:07:18.330Z,9.15
2022-10-03T03:10:27.905Z,9.98
2022-10-03T03:13:29.685Z,8.88
2022-10-03T03:16:25.391Z,9.10
2022-10-03T03:19:17.209Z,10.23
2022-10-03T03:22:33.724Z,10.10
2022-10-03T03:25:59.312Z,10.48
2022-10-03T03:29:06.914Z,11.45
2022-10-03T03:32:13.697Z,11.43
2022-10-03T03:35:21.081Z,10.55
2022-10-03T03:38:48.521Z,10.00
2022-10-03T03:41:47.418Z,10.63
2022-10-03T03:45:07.301Z,11.10
2022-10-03T03:48:18.924Z,10.27
2022-10-03T03:51:21.970Z,10.10
2022-10-03T03:54:32.973Z,9.45
2022-10-03T03:57:34.033Z,8.07
2022-10-03T04:00:29.676Z,8.57
2022-10-03T04:03:38.378Z,8.60
2022-10-03T04:06:36.158Z,8.40
2022-10-03T04:10:06.201Z,8.23
2022-10-03T04:13:05.639Z,8.25
2022-10-03T04:16:56.747Z,8.45
2022-10-03T04:19:55.586Z,7.90
2022-10-03T04:23:08.474Z,8.10
2022-10-03T04:26:15.671Z,7.82
2022-10-03T04:29:30.989Z,7.07
2022-10-03T04:32:44.299Z,7.50
2022-10-03T04:35:46.377Z,7.93
2022-10-03T04:39:00.437Z,7.07
2022-10-03T04:42:13.752Z,6.68
2022-10-03T04:45:28.800Z,7.18
2022-10-03T04:48:39.033Z,7.03
2022-10-03T04:51:38.305Z,7.55
2022-10-03T04:55:06.680Z,7.72
2022-10-03T04:58:14.776Z,8.82
2022-10-03T05:01:20.530Z,10.27
2022-10-03T05:04:16.212Z,9.57
2022-10-03T05:07:44.629Z,8.80
2022-10-03T05:10:59.570Z,7.53
2022-10-03T05:14:12.298Z,8.40
2022-10-03T05:17:11.145Z,7.82
2022-10-03T05:19:58.225Z,7.10
2022-10-03T05:22:50.917Z,7.40
2022-10-03T05:26:32.274Z,6.30
2022-10-03T05:29:37.603Z,8.00
2022-10-03T05:32:40.426Z,7.03
2022-10-03T05:35:45.871Z,8.68
2022-10-03T05:38:34.178Z,9.13
2022-10-03T05:41:29.897Z,11.25
2022-10-03T05:44:19.506Z,8.40
2022-10-03T05:47:48.965Z,9.60
2022-10-03T05:50:42.119Z,8.73
2022-10-03T05:53:53.627Z,8.63
2022-10-03T05:56:55.411Z,7.63
2022-10-03T06:00:10.246Z,6.80
2022-10-03T06:03:34.161Z,7.05
2022-10-03T06:06:29.664Z,6.47
2022-10-03T06:09:31.620Z,6.10
2022-10-03T06:12:46.890Z,6.03
2022-10-03T06:15:49.759Z,7.28
2022-10-03T06:18:36.649Z,8.48
2022-10-03T06:21:55.598Z,10.57
2022-10-03T06:25:00.954Z,11.85
2022-10-03T06:28:25.960Z,11.70
2022-10-03T06:31:51.705Z,10.50
2022-10-03T06:35:11.075Z,10.13
2022-10-03T06:38:04.025Z,11.48
2022-10-03T06:40:55.016Z,11.02
2022-10-03T06:43:54.205Z,10.68
2022-10-03T06:47:03.966Z,12.25
2022-10-03T06:50:20.709Z,10.32
2022-10-03T06:53:33.010Z,11.05
2022-10-03T06:56:40.703Z,11.10
2022-10-03T06:59:51.007Z,10.27
2022-10-03T07:02:57.371Z,10.15
2022-10-03T07:06:35.012Z,10.50
2022-10-03T07:09:49.966Z,10.82
2022-10-03T07:12:56.993Z,11.32
2022-10-03T07:16:27.798Z,11.50
2022-10-03T07:19:37.985Z,11.80
2022-10-03T07:22:30.752Z,11.93
2022-10-03T07:25:54.980Z,12.30
2022-10-03T07:29:24.126Z,13.43
2022-10-03T07:32:13.974Z,13.40
2022-10-03T07:35:25.897Z,12.88
2022-10-03T07:38:51.969Z,11.30
2022-10-03T07:41:57.643Z,10.95
2022-10-03T07:45:31.946Z,11.20
2022-10-03T07:48:38.724Z,10.43
2022-10-03T07:51:40.244Z,11.10
2022-10-03T07:54:52.615Z,11.65
2022-10-03T07:57:58.978Z,14.13
2022-10-03T08:01:13.098Z,16.13
2022-10-03T08:04:27.991Z,16.92
2022-10-03T08:07:33.456Z,18.27
2022-10-03T08:10:37.369Z,18.80
2022-10-03T08:13:33.891Z,19.15
2022-10-03T08:16:46.970Z,18.27
2022-10-03T08:19:48.889Z,22.15
2022-10-03T08:22:59.016Z,24.75
2022-10-03T08:26:03.916Z,25.42
2022-10-03T08:29:18.944Z,21.02
2022-10-03T08:32:08.759Z,17.73
2022-10-03T08:35:08.986Z,16.60
2022-10-03T08:38:14.451Z,16.33
2022-10-03T08:41:43.150Z,17.25
2022-10-03T08:44:45.053Z,16.52
2022-10-03T08:47:42.967Z,15.65
2022-10-03T08:50:42.790Z,16.08
2022-10-03T08:53:48.037Z,19.10
2022-10-03T08:56:57.928Z,28.15
2022-10-03T09:00:17.015Z,25.67
2022-10-03T09:03:32.536Z,24.52
2022-10-03T09:06:32.027Z,24.63
2022-10-03T09:09:40.544Z,20.58
2022-10-03T09:13:03.963Z,16.30
2022-10-03T09:16:09.660Z,16.25
2022-10-03T09:19:09.992Z,21.98
2022-10-03T09:22:27.771Z,22.70
2022-10-03T09:25:52.964Z,25.88
2022-10-03T09:29:01.760Z,28.00
2022-10-03T09:31:56.003Z,25.95
2022-10-03T09:34:58.968Z,30.98
2022-10-03T09:38:17.975Z,34.38
2022-10-03T09:41:29.253Z,31.65
2022-10-03T09:44:50.971Z,30.77
2022-10-03T09:47:49.728Z,28.23
2022-10-03T09:50:56.936Z,25.42
2022-10-03T09:54:07.783Z,31.15
2022-10-03T09:57:20.858Z,26.77
2022-10-03T10:00:17.395Z,26.45
2022-10-03T10:03:25.013Z,25.90
2022-10-03T10:06:38.183Z,23.52
2022-10-03T10:09:32.944Z,26.55
2022-10-03T10:12:57.418Z,25.30
2022-10-03T10:16:11.072Z,26.17
2022-10-03T10:19:25.282Z,29.60
2022-10-03T10:22:43.948Z,23.13
2022-10-03T10:25:48.983Z,24.48
2022-10-03T10:29:18.938Z,31.13
2022-10-03T10:32:44.783Z,22.27
2022-10-03T10:36:03.954Z,9.98
2022-10-03T10:39:09.547Z,2.72
2022-10-03T10:42:16.015Z,1.92
2022-10-03T10:45:46.863Z,1.50
2022-10-03T10:49:11.947Z,1.52
2022-10-03T10:52:22.765Z,1.40
2022-10-03T10:55:29.947Z,1.33
2022-10-03T11:01:26.953Z,1.33
2022-10-03T11:04:43.665Z,1.30
2022-10-03T11:08:34.935Z,1.38
2022-10-03T11:12:20.336Z,1.20
2022-10-03T11:15:29.963Z,1.15
2022-10-03T11:18:37.716Z,1.20
2022-10-03T11:21:46.974Z,1.10
2022-10-03T11:24:55.051Z,1.10
2022-10-03T11:28:25.116Z,0.90
2022-10-03T11:31:40.856Z,1.40
2022-10-03T11:35:23.012Z,1.60
2022-10-03T11:38:24.780Z,1.80
2022-10-03T11:41:27.938Z,1.83
2022-10-03T11:44:24.636Z,1.73
2022-10-03T11:47:42.946Z,1.88
2022-10-03T11:50:32.531Z,2.35
2022-10-03T11:53:29.953Z,2.10
2022-10-03T11:59:36.030Z,1.30
2022-10-03T12:02:56.320Z,1.20
2022-10-03T12:06:30.896Z,1.00
2022-10-03T12:09:54.770Z,0.93
2022-10-03T12:12:47.921Z,0.90
2022-10-03T12:15:54.383Z,0.95
2022-10-03T12:18:43.984Z,1.20
2022-10-03T12:21:56.141Z,1.33
2022-10-03T12:24:46.975Z,1.48
2022-10-03T12:28:07.574Z,1.50
2022-10-03T12:31:08.384Z,1.90
2022-10-03T12:34:16.207Z,1.85
2022-10-03T12:37:25.975Z,2.05
2022-10-03T12:40:27.578Z,2.10
2022-10-03T12:44:06.908Z,2.08
2022-10-03T12:47:37.334Z,1.77
2022-10-03T12:50:56.955Z,2.08
2022-10-03T12:54:08.704Z,2.00
2022-10-03T12:57:02.952Z,2.17
2022-10-03T13:00:20.933Z,1.83
2022-10-03T13:03:28.114Z,2.20
2022-10-03T13:07:01.245Z,2.22
2022-10-03T13:09:53.949Z,2.28
2022-10-03T13:13:06.046Z,2.53
2022-10-03T13:16:05.958Z,3.10
2022-10-03T13:19:06.750Z,1.92
2022-10-03T13:22:48.959Z,2.47
2022-10-03T13:25:45.693Z,2.90
2022-10-03T13:28:38.938Z,2.60
2022-10-03T13:31:31.213Z,2.03
2022-10-03T13:34:23.959Z,2.72
2022-10-03T13:37:29.715Z,2.75
2022-10-03T13:40:20.937Z,2.58
2022-10-03T13:43:13.764Z,2.85
2022-10-03T13:46:04.039Z,3.38
2022-10-03T13:49:02.210Z,3.30
2022-10-03T13:55:09.332Z,3.73
2022-10-03T13:58:16.937Z,4.03
2022-10-03T14:01:25.366Z,3.85
2022-10-03T14:04:36.909Z,3.53
2022-10-03T14:07:41.712Z,4.05
2022-10-03T14:10:32.924Z,3.97
2022-10-03T14:13:36.644Z,4.35
2022-10-03T14:16:31.886Z,4.30
2022-10-03T14:19:41.562Z,4.60
2022-10-03T14:23:00.933Z,4.90
2022-10-03T14:26:06.245Z,4.70
2022-10-03T14:29:07.983Z,5.07
2022-10-03T14:32:46.417Z,4.90
2022-10-03T14:35:43.960Z,4.45
2022-10-03T14:39:03.238Z,3.50
2022-10-03T14:42:13.941Z,4.05
2022-10-03T14:45:09.838Z,4.38
2022-10-03T14:48:29.908Z,4.93
2022-10-03T14:51:34.662Z,4.80
2022-10-03T14:54:25.961Z,5.03
2022-10-03T14:57:47.888Z,4.60
2022-10-03T15:00:48.909Z,4.75
2022-10-03T15:03:40.732Z,4.95
2022-10-03T15:06:39.915Z,4.75
2022-10-03T15:09:40.027Z,5.10
2022-10-03T15:12:33.910Z,4.90
2022-10-03T15:15:28.063Z,4.90
2022-10-03T15:18:25.934Z,4.85
2022-10-03T15:21:17.541Z,3.85
2022-10-03T15:24:08.905Z,4.70
2022-10-03T15:27:06.063Z,4.72
2022-10-03T15:29:56.896Z,5.30
2022-10-03T15:32:48.489Z,4.90
2022-10-03T15:35:40.876Z,5.40
2022-10-03T15:38:38.096Z,5.60
2022-10-03T15:41:32.892Z,4.43
2022-10-03T15:44:33.727Z,5.10
2022-10-03T15:47:42.876Z,5.63
2022-10-03T15:50:34.690Z,5.88
2022-10-03T15:53:38.009Z,6.22
2022-10-03T15:56:45.068Z,5.72
2022-10-03T15:59:35.894Z,6.20
2022-10-03T16:02:31.939Z,5.75
2022-10-03T16:05:24.883Z,5.55
2022-10-03T16:08:20.961Z,6.25
2022-10-03T16:11:37.104Z,7.00
2022-10-03T16:14:34.569Z,6.63
2022-10-03T16:18:07.888Z,5.90
2022-10-03T16:20:58.361Z,7.43
2022-10-03T16:23:47.874Z,7.35
2022-10-03T16:26:48.118Z,7.80
2022-10-03T16:29:38.900Z,7.68
2022-10-03T16:32:29.812Z,7.97
2022-10-03T16:35:43.931Z,8.20
2022-10-03T16:38:37.564Z,8.02
2022-10-03T16:41:36.904Z,8.43
2022-10-03T16:44:29.130Z,8.18
2022-10-03T16:47:20.967Z,8.73
2022-10-03T16:50:25.115Z,8.20
2022-10-03T16:53:14.898Z,8.93
2022-10-03T16:56:13.033Z,8.27
2022-10-03T16:59:07.875Z,8.88
2022-10-03T17:02:07.119Z,8.73
2022-10-03T17:05:04.896Z,8.95
2022-10-03T17:07:59.981Z,9.43
2022-10-03T17:10:53.371Z,8.98
2022-10-03T17:13:47.194Z,8.70
2022-10-03T17:16:47.839Z,8.07
2022-10-03T17:19:40.967Z,9.55
2022-10-03T17:22:59.726Z,8.75
2022-10-03T17:25:55.344Z,8.87
2022-10-03T17:29:11.159Z,9.00
2022-10-03T17:32:10.521Z,9.27
2022-10-03T17:35:08.415Z,9.50
2022-10-03T17:38:50.208Z,10.13
2022-10-03T17:41:51.956Z,9.43
2022-10-03T17:44:59.718Z,10.85
2022-10-03T17:47:55.805Z,11.05
2022-10-03T17:51:05.042Z,11.10
2022-10-03T17:53:57.751Z,11.10
2022-10-03T17:57:06.140Z,16.90
2022-10-03T17:59:59.158Z,89.67
2022-10-03T18:02:59.197Z,21.25
2022-10-03T18:05:55.625Z,16.40
2022-10-03T18:08:44.013Z,10.88
2022-10-03T18:11:34.679Z,8.43
2022-10-03T18:14:56.818Z,15.45
2022-10-03T18:18:06.332Z,33.55
2022-10-03T18:21:05.339Z,33.92
2022-10-03T18:23:55.808Z,17.90
2022-10-03T18:27:10.956Z,16.63
2022-10-03T18:30:23.129Z,11.27
2022-10-03T18:33:15.819Z,7.03
2022-10-03T18:36:14.784Z,13.57
2022-10-03T18:39:07.863Z,14.68
2022-10-03T18:42:00.857Z,13.65
2022-10-03T18:44:48.924Z,15.88
2022-10-03T18:47:37.684Z,19.95
2022-10-03T18:50:32.767Z,15.25
2022-10-03T18:53:35.234Z,18.88
2022-10-03T18:56:26.529Z,13.80
2022-10-03T18:59:43.086Z,11.68
2022-10-03T19:02:35.824Z,7.82
2022-10-03T19:05:36.378Z,7.82
2022-10-03T19:08:42.248Z,10.15
2022-10-03T19:11:41.971Z,9.07
2022-10-03T19:14:46.579Z,9.52
2022-10-03T19:17:59.847Z,13.75
2022-10-03T19:20:55.271Z,11.05
2022-10-03T19:23:44.379Z,9.20
2022-10-03T19:26:36.118Z,11.77
2022-10-03T19:29:49.654Z,10.43
2022-10-03T19:32:54.057Z,6.30
2022-10-03T19:35:47.839Z,6.47
2022-10-03T19:38:40.830Z,9.38
2022-10-03T19:41:50.078Z,11.73
2022-10-03T19:44:38.685Z,10.77
2022-10-03T19:47:32.074Z,8.68
2022-10-03T19:50:31.089Z,7.95
2022-10-03T19:53:19.041Z,7.65
2022-10-03T19:59:14.557Z,7.22
2022-10-03T20:02:06.142Z,6.30
2022-10-03T20:04:55.524Z,8.55
2022-10-03T20:07:47.338Z,5.88
2022-10-03T20:10:58.320Z,7.53
2022-10-03T20:13:48.318Z,5.55
2022-10-03T20:16:46.650Z,6.10
2022-10-03T20:19:55.287Z,5.50
2022-10-03T20:22:42.937Z,6.50
2022-10-03T20:25:38.433Z,5.78
2022-10-03T20:29:04.355Z,9.10
2022-10-03T20:31:57.843Z,9.85
2022-10-03T20:34:52.735Z,9.82
2022-10-03T20:38:10.913Z,7.88
2022-10-03T20:41:11.774Z,6.82
2022-10-03T20:44:17.899Z,6.50
2022-10-03T20:47:16.936Z,6.10
2022-10-03T20:50:27.953Z,5.68
2022-10-03T20:53:25.049Z,5.70
2022-10-03T20:56:14.944Z,6.07
2022-10-03T20:59:07.747Z,6.15
2022-10-03T21:02:22.251Z,7.35
2022-10-03T21:05:24.169Z,8.50
2022-10-03T21:08:29.707Z,12.07
2022-10-03T21:11:28.733Z,11.85
2022-10-03T21:14:20.754Z,8.70
2022-10-03T21:17:15.129Z,7.32
2022-10-03T21:20:11.792Z,5.90
2022-10-03T21:23:05.764Z,4.90
2022-10-03T21:25:58.703Z,7.15
2022-10-03T21:28:46.468Z,6.82
2022-10-03T21:32:03.162Z,5.72
2022-10-03T21:34:52.800Z,8.32
2022-10-03T21:38:14.901Z,8.75
2022-10-03T21:41:13.628Z,8.77
2022-10-03T21:44:13.998Z,9.05
2022-10-03T21:47:07.857Z,10.20
2022-10-03T21:49:58.410Z,10.02
2022-10-03T21:53:23.639Z,10.45
2022-10-03T21:56:18.310Z,9.80
2022-10-03T21:59:10.863Z,9.05
2022-10-03T22:02:30.306Z,8.63
2022-10-03T22:05:49.815Z,9.95
2022-10-03T22:08:40.136Z,8.27
2022-10-03T22:11:51.800Z,9.18
2022-10-03T22:14:45.922Z,7.53
2022-10-03T22:18:00.786Z,7.45
2022-10-03T22:20:59.858Z,9.10
2022-10-03T22:24:12.784Z,8.52
2022-10-03T22:27:09.076Z,8.40
2022-10-03T22:30:08.765Z,8.98
2022-10-03T22:33:20.189Z,11.02
2022-10-03T22:36:11.813Z,11.02
2022-10-03T22:38:58.828Z,10.27
2022-10-03T22:41:59.773Z,10.73
2022-10-03T22:44:50.378Z,10.43
2022-10-03T22:47:39.761Z,9.98
2022-10-03T22:50:31.704Z,10.00
2022-10-03T22:53:24.799Z,9.88
2022-10-03T22:56:30.441Z,10.60
2022-10-03T22:59:28.767Z,10.35
2022-10-03T23:02:18.254Z,10.55
2022-10-03T23:05:08.751Z,9.35
2022-10-03T23:08:20.348Z,10.48
2022-10-03T23:11:24.798Z,10.70
2022-10-03T23:14:22.696Z,9.77
2022-10-03T23:17:13.764Z,9.25
2022-10-03T23:20:39.124Z,10.23
2022-10-03T23:23:50.788Z,11.30
2022-10-03T23:26:56.383Z,9.18
2022-10-03T23:29:44.774Z,9.07
2022-10-03T23:32:46.909Z,8.50
2022-10-03T23:35:44.754Z,9.95
2022-10-03T23:38:33.282Z,8.40
2022-10-03T23:41:42.857Z,8.75
2022-10-03T23:44:52.611Z,8.23
2022-10-03T23:47:53.765Z,9.55
2022-10-03T23:50:46.497Z,8.45
2022-10-03T23:53:48.758Z,9.88
2022-10-03T23:56:43.506Z,9.75
2022-10-03T23:59:37.742Z,9.13
